sensor_id;sensor_type;location;lat;lon;timestamp;temperature;humidity
26254;DHT22;53339;51.378;0.094;2024-03-25T00:01:06;5.40;74.30
26254;DHT22;53339;51.378;0.094;2024-03-25T00:03:32;5.40;74.30
26254;DHT22;53339;51.378;0.094;2024-03-25T00:05:59;5.50;74.20
26254;DHT22;53339;51.378;0.094;2024-03-25T00:08:26;5.50;74.00
26254;DHT22;53339;51.378;0.094;2024-03-25T00:10:52;5.60;73.90
26254;DHT22;53339;51.378;0.094;2024-03-25T00:13:19;5.60;73.80
26254;DHT22;53339;51.378;0.094;2024-03-25T00:15:46;5.60;73.60
26254;DHT22;53339;51.378;0.094;2024-03-25T00:18:13;5.70;73.60
26254;DHT22;53339;51.378;0.094;2024-03-25T00:20:40;5.60;73.50
26254;DHT22;53339;51.378;0.094;2024-03-25T00:23:06;5.60;73.60
26254;DHT22;53339;51.378;0.094;2024-03-25T00:25:33;5.60;73.80
26254;DHT22;53339;51.378;0.094;2024-03-25T00:28:00;5.60;74.00
26254;DHT22;53339;51.378;0.094;2024-03-25T00:30:27;5.60;74.20
26254;DHT22;53339;51.378;0.094;2024-03-25T00:32:53;5.60;74.40
26254;DHT22;53339;51.378;0.094;2024-03-25T00:35:20;5.60;74.40
26254;DHT22;53339;51.378;0.094;2024-03-25T00:37:47;5.60;74.40
26254;DHT22;53339;51.378;0.094;2024-03-25T00:40:14;5.60;74.50
26254;DHT22;53339;51.378;0.094;2024-03-25T00:42:40;5.70;74.60
26254;DHT22;53339;51.378;0.094;2024-03-25T00:45:07;5.70;74.70
26254;DHT22;53339;51.378;0.094;2024-03-25T00:47:35;5.60;74.80
26254;DHT22;53339;51.378;0.094;2024-03-25T00:50:02;5.60;75.00
26254;DHT22;53339;51.378;0.094;2024-03-25T00:52:28;5.70;75.00
26254;DHT22;53339;51.378;0.094;2024-03-25T00:54:55;5.70;75.00
26254;DHT22;53339;51.378;0.094;2024-03-25T00:57:22;5.70;74.80
26254;DHT22;53339;51.378;0.094;2024-03-25T00:59:48;5.70;74.70
26254;DHT22;53339;51.378;0.094;2024-03-25T01:02:15;5.70;74.70
26254;DHT22;53339;51.378;0.094;2024-03-25T01:04:42;5.70;74.80
26254;DHT22;53339;51.378;0.094;2024-03-25T01:07:09;5.70;74.90
26254;DHT22;53339;51.378;0.094;2024-03-25T01:09:36;5.70;75.10
26254;DHT22;53339;51.378;0.094;2024-03-25T01:12:03;5.70;75.10
26254;DHT22;53339;51.378;0.094;2024-03-25T01:14:29;5.70;75.30
26254;DHT22;53339;51.378;0.094;2024-03-25T01:16:56;5.70;75.50
26254;DHT22;53339;51.378;0.094;2024-03-25T01:19:23;5.70;75.80
26254;DHT22;53339;51.378;0.094;2024-03-25T01:21:50;5.70;76.10
26254;DHT22;53339;51.378;0.094;2024-03-25T01:24:16;5.80;76.20
26254;DHT22;53339;51.378;0.094;2024-03-25T01:26:43;5.80;76.30
26254;DHT22;53339;51.378;0.094;2024-03-25T01:29:10;5.90;76.30
26254;DHT22;53339;51.378;0.094;2024-03-25T01:31:36;5.90;76.20
26254;DHT22;53339;51.378;0.094;2024-03-25T01:34:03;5.90;76.10
26254;DHT22;53339;51.378;0.094;2024-03-25T01:36:30;6.00;76.10
26254;DHT22;53339;51.378;0.094;2024-03-25T01:38:56;6.00;76.00
26254;DHT22;53339;51.378;0.094;2024-03-25T01:41:23;6.00;76.10
26254;DHT22;53339;51.378;0.094;2024-03-25T01:43:50;6.00;76.10
26254;DHT22;53339;51.378;0.094;2024-03-25T01:46:17;6.00;76.10
26254;DHT22;53339;51.378;0.094;2024-03-25T01:48:45;5.90;76.10
26254;DHT22;53339;51.378;0.094;2024-03-25T01:51:13;5.90;76.30
26254;DHT22;53339;51.378;0.094;2024-03-25T01:53:41;5.90;76.30
26254;DHT22;53339;51.378;0.094;2024-03-25T01:56:08;6.00;76.20
26254;DHT22;53339;51.378;0.094;2024-03-25T01:58:36;6.00;76.10
26254;DHT22;53339;51.378;0.094;2024-03-25T02:01:04;6.00;76.00
26254;DHT22;53339;51.378;0.094;2024-03-25T02:03:32;6.00;75.90
26254;DHT22;53339;51.378;0.094;2024-03-25T02:06:02;6.00;75.80
26254;DHT22;53339;51.378;0.094;2024-03-25T02:08:31;6.00;75.70
26254;DHT22;53339;51.378;0.094;2024-03-25T02:10:58;5.90;75.60
26254;DHT22;53339;51.378;0.094;2024-03-25T02:13:25;5.90;75.60
26254;DHT22;53339;51.378;0.094;2024-03-25T02:15:52;5.90;75.70
26254;DHT22;53339;51.378;0.094;2024-03-25T02:18:19;5.80;75.80
26254;DHT22;53339;51.378;0.094;2024-03-25T02:20:46;5.80;76.10
26254;DHT22;53339;51.378;0.094;2024-03-25T02:23:13;5.70;76.40
26254;DHT22;53339;51.378;0.094;2024-03-25T02:25:42;5.70;76.60
26254;DHT22;53339;51.378;0.094;2024-03-25T02:28:09;5.70;76.80
26254;DHT22;53339;51.378;0.094;2024-03-25T02:30:36;5.70;76.80
26254;DHT22;53339;51.378;0.094;2024-03-25T02:33:03;5.60;76.80
26254;DHT22;53339;51.378;0.094;2024-03-25T02:35:30;5.60;76.90
26254;DHT22;53339;51.378;0.094;2024-03-25T02:37:57;5.60;77.30
26254;DHT22;53339;51.378;0.094;2024-03-25T02:40:25;5.60;77.60
26254;DHT22;53339;51.378;0.094;2024-03-25T02:42:52;5.60;77.80
26254;DHT22;53339;51.378;0.094;2024-03-25T02:45:19;5.50;77.80
26254;DHT22;53339;51.378;0.094;2024-03-25T02:47:48;5.50;77.90
26254;DHT22;53339;51.378;0.094;2024-03-25T02:50:14;5.50;77.90
26254;DHT22;53339;51.378;0.094;2024-03-25T02:52:41;5.50;78.00
26254;DHT22;53339;51.378;0.094;2024-03-25T02:55:08;5.40;78.00
26254;DHT22;53339;51.378;0.094;2024-03-25T02:57:37;5.50;78.20
26254;DHT22;53339;51.378;0.094;2024-03-25T03:00:04;5.40;78.20
26254;DHT22;53339;51.378;0.094;2024-03-25T03:02:31;5.40;78.30
26254;DHT22;53339;51.378;0.094;2024-03-25T03:04:58;5.40;78.30
26254;DHT22;53339;51.378;0.094;2024-03-25T03:07:25;5.40;78.40
26254;DHT22;53339;51.378;0.094;2024-03-25T03:09:52;5.40;78.40
26254;DHT22;53339;51.378;0.094;2024-03-25T03:12:19;5.40;78.50
26254;DHT22;53339;51.378;0.094;2024-03-25T03:14:45;5.40;78.60
26254;DHT22;53339;51.378;0.094;2024-03-25T03:17:12;5.40;78.60
26254;DHT22;53339;51.378;0.094;2024-03-25T03:19:39;5.40;78.60
26254;DHT22;53339;51.378;0.094;2024-03-25T03:22:05;5.40;78.70
26254;DHT22;53339;51.378;0.094;2024-03-25T03:24:32;5.40;78.70
26254;DHT22;53339;51.378;0.094;2024-03-25T03:27:00;5.50;78.70
26254;DHT22;53339;51.378;0.094;2024-03-25T03:29:27;5.50;78.70
26254;DHT22;53339;51.378;0.094;2024-03-25T03:31:53;5.60;78.70
26254;DHT22;53339;51.378;0.094;2024-03-25T03:34:20;5.60;78.60
26254;DHT22;53339;51.378;0.094;2024-03-25T03:36:47;5.60;78.60
26254;DHT22;53339;51.378;0.094;2024-03-25T03:39:15;5.70;78.60
26254;DHT22;53339;51.378;0.094;2024-03-25T03:41:42;5.70;78.50
26254;DHT22;53339;51.378;0.094;2024-03-25T03:44:08;5.70;78.40
26254;DHT22;53339;51.378;0.094;2024-03-25T03:46:36;5.70;78.30
26254;DHT22;53339;51.378;0.094;2024-03-25T03:49:02;5.80;78.30
26254;DHT22;53339;51.378;0.094;2024-03-25T03:51:29;5.80;78.20
26254;DHT22;53339;51.378;0.094;2024-03-25T03:53:56;5.90;78.10
26254;DHT22;53339;51.378;0.094;2024-03-25T03:56:22;5.90;78.10
26254;DHT22;53339;51.378;0.094;2024-03-25T03:58:49;5.80;78.10
26254;DHT22;53339;51.378;0.094;2024-03-25T04:01:19;5.90;78.10
26254;DHT22;53339;51.378;0.094;2024-03-25T04:03:46;5.90;78.10
26254;DHT22;53339;51.378;0.094;2024-03-25T04:06:13;6.00;78.00
26254;DHT22;53339;51.378;0.094;2024-03-25T04:08:40;6.00;78.00
26254;DHT22;53339;51.378;0.094;2024-03-25T04:11:07;6.00;78.00
26254;DHT22;53339;51.378;0.094;2024-03-25T04:13:34;6.00;78.00
26254;DHT22;53339;51.378;0.094;2024-03-25T04:16:05;6.00;77.90
26254;DHT22;53339;51.378;0.094;2024-03-25T04:18:33;6.00;77.90
26254;DHT22;53339;51.378;0.094;2024-03-25T04:21:00;6.10;78.00
26254;DHT22;53339;51.378;0.094;2024-03-25T04:23:27;6.10;78.00
26254;DHT22;53339;51.378;0.094;2024-03-25T04:25:53;6.10;78.00
26254;DHT22;53339;51.378;0.094;2024-03-25T04:28:20;6.00;78.00
26254;DHT22;53339;51.378;0.094;2024-03-25T04:30:53;6.10;78.10
26254;DHT22;53339;51.378;0.094;2024-03-25T04:33:20;6.10;78.10
26254;DHT22;53339;51.378;0.094;2024-03-25T04:35:47;6.10;78.10
26254;DHT22;53339;51.378;0.094;2024-03-25T04:38:16;6.10;78.10
26254;DHT22;53339;51.378;0.094;2024-03-25T04:40:43;6.20;78.10
26254;DHT22;53339;51.378;0.094;2024-03-25T04:43:10;6.20;78.20
26254;DHT22;53339;51.378;0.094;2024-03-25T04:45:37;6.20;78.20
26254;DHT22;53339;51.378;0.094;2024-03-25T04:48:04;6.20;78.20
26254;DHT22;53339;51.378;0.094;2024-03-25T04:50:31;6.20;78.30
26254;DHT22;53339;51.378;0.094;2024-03-25T04:52:57;6.30;78.40
26254;DHT22;53339;51.378;0.094;2024-03-25T04:55:24;6.30;78.40
26254;DHT22;53339;51.378;0.094;2024-03-25T04:57:51;6.20;78.40
26254;DHT22;53339;51.378;0.094;2024-03-25T05:00:18;6.20;78.50
26254;DHT22;53339;51.378;0.094;2024-03-25T05:02:45;6.30;78.50
26254;DHT22;53339;51.378;0.094;2024-03-25T05:05:11;6.40;78.60
26254;DHT22;53339;51.378;0.094;2024-03-25T05:07:39;6.30;78.60
26254;DHT22;53339;51.378;0.094;2024-03-25T05:10:05;6.30;78.70
26254;DHT22;53339;51.378;0.094;2024-03-25T05:12:32;6.40;78.80
26254;DHT22;53339;51.378;0.094;2024-03-25T05:14:59;6.40;78.90
26254;DHT22;53339;51.378;0.094;2024-03-25T05:17:26;6.30;78.90
26254;DHT22;53339;51.378;0.094;2024-03-25T05:19:52;6.30;79.10
26254;DHT22;53339;51.378;0.094;2024-03-25T05:22:19;6.40;79.10
26254;DHT22;53339;51.378;0.094;2024-03-25T05:24:46;6.40;79.30
26254;DHT22;53339;51.378;0.094;2024-03-25T05:27:15;6.40;79.20
26254;DHT22;53339;51.378;0.094;2024-03-25T05:29:42;6.40;79.30
26254;DHT22;53339;51.378;0.094;2024-03-25T05:32:08;6.40;79.30
26254;DHT22;53339;51.378;0.094;2024-03-25T05:34:35;6.50;79.50
26254;DHT22;53339;51.378;0.094;2024-03-25T05:37:02;6.40;79.40
26254;DHT22;53339;51.378;0.094;2024-03-25T05:39:29;6.40;79.50
26254;DHT22;53339;51.378;0.094;2024-03-25T05:41:56;6.40;79.60
26254;DHT22;53339;51.378;0.094;2024-03-25T05:44:23;6.40;79.80
26254;DHT22;53339;51.378;0.094;2024-03-25T05:46:49;6.40;80.00
26254;DHT22;53339;51.378;0.094;2024-03-25T05:49:16;6.40;80.10
26254;DHT22;53339;51.378;0.094;2024-03-25T05:51:43;6.40;80.20
26254;DHT22;53339;51.378;0.094;2024-03-25T05:54:10;6.50;80.50
26254;DHT22;53339;51.378;0.094;2024-03-25T05:56:37;6.50;80.40
26254;DHT22;53339;51.378;0.094;2024-03-25T05:59:03;6.50;80.40
26254;DHT22;53339;51.378;0.094;2024-03-25T06:01:30;6.50;80.50
26254;DHT22;53339;51.378;0.094;2024-03-25T06:03:57;6.50;80.60
26254;DHT22;53339;51.378;0.094;2024-03-25T06:06:24;6.60;80.80
26254;DHT22;53339;51.378;0.094;2024-03-25T06:08:50;6.50;80.70
26254;DHT22;53339;51.378;0.094;2024-03-25T06:11:17;6.60;80.90
26254;DHT22;53339;51.378;0.094;2024-03-25T06:13:47;6.60;81.00
26254;DHT22;53339;51.378;0.094;2024-03-25T06:16:14;6.70;81.20
26254;DHT22;53339;51.378;0.094;2024-03-25T06:18:41;6.70;80.90
26254;DHT22;53339;51.378;0.094;2024-03-25T06:21:08;6.70;81.00
26254;DHT22;53339;51.378;0.094;2024-03-25T06:23:34;6.70;81.10
26254;DHT22;53339;51.378;0.094;2024-03-25T06:26:01;6.80;81.30
26254;DHT22;53339;51.378;0.094;2024-03-25T06:28:28;6.80;81.20
26254;DHT22;53339;51.378;0.094;2024-03-25T06:30:55;6.80;81.40
26254;DHT22;53339;51.378;0.094;2024-03-25T06:33:40;6.90;81.50
26254;DHT22;53339;51.378;0.094;2024-03-25T06:36:26;7.00;81.60
26254;DHT22;53339;51.378;0.094;2024-03-25T06:38:52;6.90;81.30
26254;DHT22;53339;51.378;0.094;2024-03-25T06:41:19;6.90;81.50
26254;DHT22;53339;51.378;0.094;2024-03-25T06:43:47;7.00;81.60
26254;DHT22;53339;51.378;0.094;2024-03-25T06:46:15;7.10;81.70
26254;DHT22;53339;51.378;0.094;2024-03-25T06:48:42;7.10;81.50
26254;DHT22;53339;51.378;0.094;2024-03-25T06:51:11;7.20;81.60
26254;DHT22;53339;51.378;0.094;2024-03-25T06:53:38;7.30;81.80
26254;DHT22;53339;51.378;0.094;2024-03-25T06:56:05;7.40;81.90
26254;DHT22;53339;51.378;0.094;2024-03-25T06:58:31;7.40;81.50
26254;DHT22;53339;51.378;0.094;2024-03-25T07:01:04;7.40;81.60
26254;DHT22;53339;51.378;0.094;2024-03-25T07:03:32;7.50;81.70
26254;DHT22;53339;51.378;0.094;2024-03-25T07:05:59;7.60;81.80
26254;DHT22;53339;51.378;0.094;2024-03-25T07:08:27;7.60;81.60
26254;DHT22;53339;51.378;0.094;2024-03-25T07:10:54;7.70;81.50
26254;DHT22;53339;51.378;0.094;2024-03-25T07:13:21;7.70;81.60
26254;DHT22;53339;51.378;0.094;2024-03-25T07:15:50;7.90;81.70
26254;DHT22;53339;51.378;0.094;2024-03-25T07:18:17;7.90;81.50
26254;DHT22;53339;51.378;0.094;2024-03-25T07:20:44;7.90;81.40
26254;DHT22;53339;51.378;0.094;2024-03-25T07:23:11;8.00;81.50
26254;DHT22;53339;51.378;0.094;2024-03-25T07:25:38;8.10;81.50
26254;DHT22;53339;51.378;0.094;2024-03-25T07:28:04;8.10;81.30
26254;DHT22;53339;51.378;0.094;2024-03-25T07:30:31;8.10;81.20
26254;DHT22;53339;51.378;0.094;2024-03-25T07:32:59;8.20;81.30
26254;DHT22;53339;51.378;0.094;2024-03-25T07:35:26;8.30;81.40
26254;DHT22;53339;51.378;0.094;2024-03-25T07:37:54;8.40;81.30
26254;DHT22;53339;51.378;0.094;2024-03-25T07:40:21;8.40;80.90
26254;DHT22;53339;51.378;0.094;2024-03-25T07:42:49;8.40;81.10
26254;DHT22;53339;51.378;0.094;2024-03-25T07:45:16;8.60;81.10
26254;DHT22;53339;51.378;0.094;2024-03-25T07:47:42;8.60;81.00
26254;DHT22;53339;51.378;0.094;2024-03-25T07:50:09;8.60;80.60
26254;DHT22;53339;51.378;0.094;2024-03-25T07:52:36;8.60;80.70
26254;DHT22;53339;51.378;0.094;2024-03-25T07:55:07;8.70;80.60
26254;DHT22;53339;51.378;0.094;2024-03-25T07:57:34;8.70;80.50
26254;DHT22;53339;51.378;0.094;2024-03-25T08:00:01;8.70;80.10
26254;DHT22;53339;51.378;0.094;2024-03-25T08:02:38;8.80;80.30
26254;DHT22;53339;51.378;0.094;2024-03-25T08:05:08;8.80;80.40
26254;DHT22;53339;51.378;0.094;2024-03-25T08:07:35;8.90;80.30
26254;DHT22;53339;51.378;0.094;2024-03-25T08:10:02;8.90;79.70
26254;DHT22;53339;51.378;0.094;2024-03-25T08:12:30;8.90;79.90
26254;DHT22;53339;51.378;0.094;2024-03-25T08:14:57;9.00;80.00
26254;DHT22;53339;51.378;0.094;2024-03-25T08:17:23;9.10;80.00
26254;DHT22;53339;51.378;0.094;2024-03-25T08:19:50;9.20;79.30
26254;DHT22;53339;51.378;0.094;2024-03-25T08:22:17;9.20;79.30
26254;DHT22;53339;51.378;0.094;2024-03-25T08:24:43;9.20;79.30
26254;DHT22;53339;51.378;0.094;2024-03-25T08:27:10;9.40;79.30
26254;DHT22;53339;51.378;0.094;2024-03-25T08:29:37;9.40;78.70
26254;DHT22;53339;51.378;0.094;2024-03-25T08:32:04;9.40;78.60
26254;DHT22;53339;51.378;0.094;2024-03-25T08:34:32;9.60;78.70
26254;DHT22;53339;51.378;0.094;2024-03-25T08:36:58;9.70;78.50
26254;DHT22;53339;51.378;0.094;2024-03-25T08:39:25;9.70;77.60
26254;DHT22;53339;51.378;0.094;2024-03-25T08:41:52;9.80;77.40
26254;DHT22;53339;51.378;0.094;2024-03-25T08:44:18;9.80;77.40
26254;DHT22;53339;51.378;0.094;2024-03-25T08:46:45;9.90;77.10
26254;DHT22;53339;51.378;0.094;2024-03-25T08:49:12;10.00;76.30
26254;DHT22;53339;51.378;0.094;2024-03-25T08:51:39;10.00;76.00
26254;DHT22;53339;51.378;0.094;2024-03-25T08:54:06;10.00;76.20
26254;DHT22;53339;51.378;0.094;2024-03-25T08:56:32;10.10;76.00
26254;DHT22;53339;51.378;0.094;2024-03-25T08:59:02;10.10;75.60
26254;DHT22;53339;51.378;0.094;2024-03-25T09:01:29;10.10;75.30
26254;DHT22;53339;51.378;0.094;2024-03-25T09:03:56;10.10;75.70
26254;DHT22;53339;51.378;0.094;2024-03-25T09:06:23;10.20;75.40
26254;DHT22;53339;51.378;0.094;2024-03-25T09:08:50;10.20;74.70
26254;DHT22;53339;51.378;0.094;2024-03-25T09:11:35;10.20;74.10
26254;DHT22;53339;51.378;0.094;2024-03-25T09:14:02;10.20;74.50
26254;DHT22;53339;51.378;0.094;2024-03-25T09:16:30;10.40;74.20
26254;DHT22;53339;51.378;0.094;2024-03-25T09:18:57;10.40;73.40
26254;DHT22;53339;51.378;0.094;2024-03-25T09:21:24;10.40;72.80
26254;DHT22;53339;51.378;0.094;2024-03-25T09:23:53;10.50;72.60
26254;DHT22;53339;51.378;0.094;2024-03-25T09:26:21;10.60;72.50
26254;DHT22;53339;51.378;0.094;2024-03-25T09:28:48;10.60;72.10
26254;DHT22;53339;51.378;0.094;2024-03-25T09:31:14;10.60;71.50
26254;DHT22;53339;51.378;0.094;2024-03-25T09:33:42;10.60;72.40
26254;DHT22;53339;51.378;0.094;2024-03-25T09:36:10;10.60;72.20
26254;DHT22;53339;51.378;0.094;2024-03-25T09:38:37;10.60;72.20
26254;DHT22;53339;51.378;0.094;2024-03-25T09:41:04;10.70;71.70
26254;DHT22;53339;51.378;0.094;2024-03-25T09:43:55;10.60;71.80
26254;DHT22;53339;51.378;0.094;2024-03-25T09:46:23;10.60;72.40
26254;DHT22;53339;51.378;0.094;2024-03-25T09:48:55;10.70;71.90
26254;DHT22;53339;51.378;0.094;2024-03-25T09:51:22;10.80;71.00
26254;DHT22;53339;51.378;0.094;2024-03-25T09:53:48;10.70;71.00
26254;DHT22;53339;51.378;0.094;2024-03-25T09:56:15;10.80;71.30
26254;DHT22;53339;51.378;0.094;2024-03-25T09:58:44;10.90;71.40
26254;DHT22;53339;51.378;0.094;2024-03-25T10:01:11;10.90;70.30
26254;DHT22;53339;51.378;0.094;2024-03-25T10:03:37;10.90;70.50
26254;DHT22;53339;51.378;0.094;2024-03-25T10:06:04;10.90;69.90
26254;DHT22;53339;51.378;0.094;2024-03-25T10:08:31;10.80;69.80
26254;DHT22;53339;51.378;0.094;2024-03-25T10:10:58;10.80;69.30
26254;DHT22;53339;51.378;0.094;2024-03-25T10:13:26;10.80;69.20
26254;DHT22;53339;51.378;0.094;2024-03-25T10:15:55;10.80;69.70
26254;DHT22;53339;51.378;0.094;2024-03-25T10:18:21;10.90;70.00
26254;DHT22;53339;51.378;0.094;2024-03-25T10:20:50;10.90;69.60
26254;DHT22;53339;51.378;0.094;2024-03-25T10:23:21;10.90;69.10
26254;DHT22;53339;51.378;0.094;2024-03-25T10:25:48;10.90;69.00
26254;DHT22;53339;51.378;0.094;2024-03-25T10:28:15;10.80;68.50
26254;DHT22;53339;51.378;0.094;2024-03-25T10:30:41;10.70;68.90
26254;DHT22;53339;51.378;0.094;2024-03-25T10:33:09;10.60;69.50
26254;DHT22;53339;51.378;0.094;2024-03-25T10:35:37;10.60;69.20
26254;DHT22;53339;51.378;0.094;2024-03-25T10:38:05;10.60;68.80
26254;DHT22;53339;51.378;0.094;2024-03-25T10:40:34;10.40;69.00
26254;DHT22;53339;51.378;0.094;2024-03-25T10:43:04;10.20;69.70
26254;DHT22;53339;51.378;0.094;2024-03-25T10:45:35;10.20;70.30
26254;DHT22;53339;51.378;0.094;2024-03-25T10:48:09;10.20;69.80
26254;DHT22;53339;51.378;0.094;2024-03-25T10:50:40;10.10;69.40
26254;DHT22;53339;51.378;0.094;2024-03-25T10:53:10;10.00;70.40
26254;DHT22;53339;51.378;0.094;2024-03-25T10:55:37;10.10;71.10
26254;DHT22;53339;51.378;0.094;2024-03-25T10:58:04;10.10;70.70
26254;DHT22;53339;51.378;0.094;2024-03-25T11:00:34;10.00;70.20
26254;DHT22;53339;51.378;0.094;2024-03-25T11:03:01;10.00;70.90
26254;DHT22;53339;51.378;0.094;2024-03-25T11:05:29;10.00;71.30
26254;DHT22;53339;51.378;0.094;2024-03-25T11:07:56;10.10;70.60
26254;DHT22;53339;51.378;0.094;2024-03-25T11:10:29;10.10;70.40
26254;DHT22;53339;51.378;0.094;2024-03-25T11:12:56;9.90;71.00
26254;DHT22;53339;51.378;0.094;2024-03-25T11:15:23;10.00;71.50
26254;DHT22;53339;51.378;0.094;2024-03-25T11:17:50;10.00;71.00
26254;DHT22;53339;51.378;0.094;2024-03-25T11:20:17;10.10;70.50
26254;DHT22;53339;51.378;0.094;2024-03-25T11:22:51;9.90;70.70
26254;DHT22;53339;51.378;0.094;2024-03-25T11:25:19;10.00;71.10
26254;DHT22;53339;51.378;0.094;2024-03-25T11:27:47;10.10;70.90
26254;DHT22;53339;51.378;0.094;2024-03-25T11:30:15;10.30;70.10
26254;DHT22;53339;51.378;0.094;2024-03-25T11:35:13;10.40;71.00
26254;DHT22;53339;51.378;0.094;2024-03-25T11:37:41;10.60;70.50
26254;DHT22;53339;51.378;0.094;2024-03-25T11:40:09;10.60;69.90
26254;DHT22;53339;51.378;0.094;2024-03-25T11:42:39;10.70;69.80
26254;DHT22;53339;51.378;0.094;2024-03-25T11:45:26;10.80;70.10
26254;DHT22;53339;51.378;0.094;2024-03-25T11:47:53;11.00;69.70
26254;DHT22;53339;51.378;0.094;2024-03-25T11:50:20;11.00;68.40
26254;DHT22;53339;51.378;0.094;2024-03-25T11:52:47;10.90;69.10
26254;DHT22;53339;51.378;0.094;2024-03-25T11:55:17;11.00;69.50
26254;DHT22;53339;51.378;0.094;2024-03-25T11:57:45;11.20;69.10
26254;DHT22;53339;51.378;0.094;2024-03-25T12:00:12;11.40;67.80
26254;DHT22;53339;51.378;0.094;2024-03-25T12:02:45;11.50;68.00
26254;DHT22;53339;51.378;0.094;2024-03-25T12:05:13;11.70;68.30
26254;DHT22;53339;51.378;0.094;2024-03-25T12:07:40;12.00;67.60
26254;DHT22;53339;51.378;0.094;2024-03-25T12:10:07;12.20;66.60
26254;DHT22;53339;51.378;0.094;2024-03-25T12:12:54;12.20;66.90
26254;DHT22;53339;51.378;0.094;2024-03-25T12:15:21;12.30;67.50
26254;DHT22;53339;51.378;0.094;2024-03-25T12:17:49;12.50;66.30
26254;DHT22;53339;51.378;0.094;2024-03-25T12:20:19;12.60;66.10
26254;DHT22;53339;51.378;0.094;2024-03-25T12:22:46;12.50;66.60
26254;DHT22;53339;51.378;0.094;2024-03-25T12:25:12;12.50;66.90
26254;DHT22;53339;51.378;0.094;2024-03-25T12:27:39;12.60;66.90
26254;DHT22;53339;51.378;0.094;2024-03-25T12:30:10;12.70;65.70
26254;DHT22;53339;51.378;0.094;2024-03-25T12:35:16;12.50;66.80
26254;DHT22;53339;51.378;0.094;2024-03-25T12:37:47;12.40;66.50
26254;DHT22;53339;51.378;0.094;2024-03-25T12:40:26;12.30;66.10
26254;DHT22;53339;51.378;0.094;2024-03-25T12:42:53;12.10;66.30
26254;DHT22;53339;51.378;0.094;2024-03-25T12:45:21;12.00;67.20
26254;DHT22;53339;51.378;0.094;2024-03-25T12:47:47;12.10;66.60
26254;DHT22;53339;51.378;0.094;2024-03-25T12:50:14;12.20;66.10
26254;DHT22;53339;51.378;0.094;2024-03-25T12:52:41;12.00;65.90
26254;DHT22;53339;51.378;0.094;2024-03-25T12:55:08;12.00;66.70
26254;DHT22;53339;51.378;0.094;2024-03-25T12:57:36;12.10;67.00
26254;DHT22;53339;51.378;0.094;2024-03-25T13:00:03;12.20;66.40
26254;DHT22;53339;51.378;0.094;2024-03-25T13:02:34;12.30;66.00
26254;DHT22;53339;51.378;0.094;2024-03-25T13:05:01;12.40;66.60
26254;DHT22;53339;51.378;0.094;2024-03-25T13:07:28;12.60;66.10
26254;DHT22;53339;51.378;0.094;2024-03-25T13:09:55;12.90;65.50
26254;DHT22;53339;51.378;0.094;2024-03-25T13:12:22;13.00;64.30
26254;DHT22;53339;51.378;0.094;2024-03-25T13:14:48;13.00;65.30
26254;DHT22;53339;51.378;0.094;2024-03-25T13:17:15;13.00;65.00
26254;DHT22;53339;51.378;0.094;2024-03-25T13:19:42;13.10;63.90
26254;DHT22;53339;51.378;0.094;2024-03-25T13:22:08;13.00;63.50
26254;DHT22;53339;51.378;0.094;2024-03-25T13:24:35;12.90;64.20
26254;DHT22;53339;51.378;0.094;2024-03-25T13:27:02;12.90;64.60
26254;DHT22;53339;51.378;0.094;2024-03-25T13:29:29;13.10;63.80
26254;DHT22;53339;51.378;0.094;2024-03-25T13:31:56;13.00;63.40
26254;DHT22;53339;51.378;0.094;2024-03-25T13:34:23;12.80;64.40
26254;DHT22;53339;51.378;0.094;2024-03-25T13:36:50;12.70;65.00
26254;DHT22;53339;51.378;0.094;2024-03-25T13:39:17;12.80;64.30
26254;DHT22;53339;51.378;0.094;2024-03-25T13:41:43;13.00;63.40
26254;DHT22;53339;51.378;0.094;2024-03-25T13:44:11;13.10;63.30
26254;DHT22;53339;51.378;0.094;2024-03-25T13:46:38;13.20;63.30
26254;DHT22;53339;51.378;0.094;2024-03-25T13:49:05;13.40;62.10
26254;DHT22;53339;51.378;0.094;2024-03-25T13:51:32;13.50;62.40
26254;DHT22;53339;51.378;0.094;2024-03-25T13:53:58;13.50;62.30
26254;DHT22;53339;51.378;0.094;2024-03-25T13:56:25;13.60;62.90
26254;DHT22;53339;51.378;0.094;2024-03-25T13:58:52;13.80;62.20
26254;DHT22;53339;51.378;0.094;2024-03-25T14:01:18;13.90;61.50
26254;DHT22;53339;51.378;0.094;2024-03-25T14:03:45;13.80;61.60
26254;DHT22;53339;51.378;0.094;2024-03-25T14:06:12;13.90;62.40
26254;DHT22;53339;51.378;0.094;2024-03-25T14:08:39;14.20;62.20
26254;DHT22;53339;51.378;0.094;2024-03-25T14:11:06;14.40;60.90
26254;DHT22;53339;51.378;0.094;2024-03-25T14:13:33;14.40;60.60
26254;DHT22;53339;51.378;0.094;2024-03-25T14:15:59;14.20;60.80
26254;DHT22;53339;51.378;0.094;2024-03-25T14:18:26;14.40;61.60
26254;DHT22;53339;51.378;0.094;2024-03-25T14:20:53;14.90;59.90
26254;DHT22;53339;51.378;0.094;2024-03-25T14:23:20;15.40;59.80
26254;DHT22;53339;51.378;0.094;2024-03-25T14:25:47;15.70;59.00
26254;DHT22;53339;51.378;0.094;2024-03-25T14:28:13;15.70;58.80
26254;DHT22;53339;51.378;0.094;2024-03-25T14:30:40;15.60;57.80
26254;DHT22;53339;51.378;0.094;2024-03-25T14:33:07;15.20;57.60
26254;DHT22;53339;51.378;0.094;2024-03-25T14:35:34;14.80;57.90
26254;DHT22;53339;51.378;0.094;2024-03-25T14:38:00;14.40;59.40
26254;DHT22;53339;51.378;0.094;2024-03-25T14:40:27;14.20;58.50
26254;DHT22;53339;51.378;0.094;2024-03-25T14:42:54;14.10;58.00
26254;DHT22;53339;51.378;0.094;2024-03-25T14:45:21;14.10;58.80
26254;DHT22;53339;51.378;0.094;2024-03-25T14:47:48;14.30;59.90
26254;DHT22;53339;51.378;0.094;2024-03-25T14:50:14;14.60;58.80
26254;DHT22;53339;51.378;0.094;2024-03-25T14:52:42;14.70;56.90
26254;DHT22;53339;51.378;0.094;2024-03-25T14:55:10;14.40;56.60
26254;DHT22;53339;51.378;0.094;2024-03-25T14:57:37;14.20;58.30
26254;DHT22;53339;51.378;0.094;2024-03-25T15:00:05;14.10;57.20
26254;DHT22;53339;51.378;0.094;2024-03-25T15:02:32;13.90;56.60
26254;DHT22;53339;51.378;0.094;2024-03-25T15:04:58;13.60;56.80
26254;DHT22;53339;51.378;0.094;2024-03-25T15:07:26;13.20;58.30
26254;DHT22;53339;51.378;0.094;2024-03-25T15:09:53;13.00;58.60
26254;DHT22;53339;51.378;0.094;2024-03-25T15:12:20;13.10;58.10
26254;DHT22;53339;51.378;0.094;2024-03-25T15:14:48;13.20;57.20
26254;DHT22;53339;51.378;0.094;2024-03-25T15:17:15;13.10;58.80
26254;DHT22;53339;51.378;0.094;2024-03-25T15:19:41;13.30;59.00
26254;DHT22;53339;51.378;0.094;2024-03-25T15:22:08;13.50;56.50
26254;DHT22;53339;51.378;0.094;2024-03-25T15:24:34;13.40;55.80
26254;DHT22;53339;51.378;0.094;2024-03-25T15:27:01;13.10;57.50
26254;DHT22;53339;51.378;0.094;2024-03-25T15:29:28;13.00;58.70
26254;DHT22;53339;51.378;0.094;2024-03-25T15:31:54;13.00;57.70
26254;DHT22;53339;51.378;0.094;2024-03-25T15:34:21;12.90;58.10
26254;DHT22;53339;51.378;0.094;2024-03-25T15:36:48;12.60;58.90
26254;DHT22;53339;51.378;0.094;2024-03-25T15:39:15;12.40;59.90
26254;DHT22;53339;51.378;0.094;2024-03-25T15:41:42;12.40;59.70
26254;DHT22;53339;51.378;0.094;2024-03-25T15:44:08;12.30;59.20
26254;DHT22;53339;51.378;0.094;2024-03-25T15:46:35;12.10;59.50